Time;durP1;ratioP1;P1;durP2;ratioP2;P2;SDS_P1;SDS_P2;PMS_P1;PMS_P2;Temp;Humidity;BMP_temperature;BMP_pressure;BME280_temperature;BME280_humidity;BME280_pressure;Samples;Min_cycle;Max_cycle;Signal;HPM_P1;HPM_P2
2024/01/26 00:02:39;;;;;;;8.57;7.43;;;;;;;13.11;62.89;99792.66;6717327;29;20229;-85
2024/01/26 00:06:01;;;;;;;8.13;7.23;;;;;;;13.28;62.55;99798.63;6726685;29;20237;-83
2024/01/26 00:09:23;;;;;;;9.00;6.77;;;;;;;13.28;62.77;99795.94;6716340;29;20252;-82
2024/01/26 00:12:44;;;;;;;11.60;6.77;;;;;;;13.14;62.90;99791.44;6714952;29;20561;-82
2024/01/26 00:16:07;;;;;;;7.37;6.40;;;;;;;12.34;66.51;99793.59;6713963;29;20213;-82
2024/01/26 00:19:29;;;;;;;7.10;5.03;;;;;;;12.83;66.67;99785.53;6712433;29;20271;-82
2024/01/26 00:22:50;;;;;;;8.33;6.17;;;;;;;13.57;63.19;99784.84;6713653;29;20244;-83
2024/01/26 00:26:13;;;;;;;6.83;6.13;;;;;;;13.14;63.88;99794.13;6712608;29;20300;-83
2024/01/26 00:29:34;;;;;;;10.80;6.40;;;;;;;13.60;62.46;99789.84;6713871;29;20260;-83
2024/01/26 00:32:59;;;;;;;11.47;7.20;;;;;;;13.31;62.32;99799.06;6713813;29;20214;-83
2024/01/26 00:36:20;;;;;;;9.43;5.90;;;;;;;12.88;65.36;99777.69;6712943;29;20206;-83
2024/01/26 00:39:42;;;;;;;9.87;7.17;;;;;;;13.42;62.65;99808.50;6713125;29;20266;-83
2024/01/26 00:43:04;;;;;;;11.47;7.77;;;;;;;13.37;63.38;99789.31;6713135;29;20357;-82
2024/01/26 00:46:25;;;;;;;11.90;7.60;;;;;;;12.81;64.15;99787.63;6712113;29;20842;-82
2024/01/26 00:49:48;;;;;;;6.40;5.80;;;;;;;13.11;65.08;99786.44;6713118;29;20261;-83
2024/01/26 00:53:10;;;;;;;5.27;4.40;;;;;;;13.31;64.18;99796.38;6711856;29;20237;-82
2024/01/26 00:56:31;;;;;;;7.87;5.10;;;;;;;13.75;63.49;99802.22;6711227;29;20640;-82
2024/01/26 00:59:53;;;;;;;9.07;6.33;;;;;;;14.00;61.40;99799.84;6712017;29;20229;-83
2024/01/26 01:03:14;;;;;;;9.70;7.37;;;;;;;14.05;60.97;99797.38;6711764;29;20228;-81
2024/01/26 01:06:37;;;;;;;9.47;6.77;;;;;;;13.85;61.48;99818.97;6711443;29;20288;-82
2024/01/26 01:09:58;;;;;;;9.63;7.10;;;;;;;13.69;62.30;99811.16;6711793;29;20316;-82
2024/01/26 01:13:20;;;;;;;9.83;5.47;;;;;;;13.63;63.33;99806.53;6710672;29;20292;-83
2024/01/26 01:16:41;;;;;;;6.63;5.20;;;;;;;13.89;62.21;99790.44;6711126;29;20746;-82
2024/01/26 01:20:04;;;;;;;7.83;6.27;;;;;;;13.89;61.48;99808.56;6710842;29;20329;-83
2024/01/26 01:23:27;;;;;;;6.30;5.20;;;;;;;13.98;61.87;99808.19;6710416;29;20270;-82
2024/01/26 01:26:48;;;;;;;4.67;4.27;;;;;;;13.76;62.64;99827.47;6710527;29;20326;-82
2024/01/26 01:30:10;;;;;;;5.73;4.20;;;;;;;14.10;61.41;99822.00;6710397;29;20283;-82
2024/01/26 01:33:32;;;;;;;4.17;3.70;;;;;;;14.06;61.79;99820.72;6710788;29;20270;-82
2024/01/26 01:36:53;;;;;;;3.83;3.30;;;;;;;14.11;62.03;99835.34;6710302;29;20247;-82
2024/01/26 01:40:16;;;;;;;5.57;3.73;;;;;;;14.22;61.01;99828.56;6710584;29;20321;-83
2024/01/26 01:43:38;;;;;;;5.13;3.90;;;;;;;14.39;60.69;99832.56;6710597;29;20245;-82
2024/01/26 01:47:00;;;;;;;3.50;3.20;;;;;;;13.90;61.98;99824.63;6710120;29;20319;-81
2024/01/26 01:50:21;;;;;;;3.90;3.50;;;;;;;14.18;61.38;99830.81;6710221;29;20634;-82
2024/01/26 01:53:43;;;;;;;3.30;3.00;;;;;;;14.51;60.50;99831.75;6709932;29;20292;-82
2024/01/26 01:57:06;;;;;;;4.27;3.27;;;;;;;14.56;59.91;99814.84;6709301;29;20378;-82
2024/01/26 02:00:28;;;;;;;5.83;4.30;;;;;;;14.49;59.72;99811.28;6709540;29;20296;-82
2024/01/26 02:03:50;;;;;;;5.33;3.70;;;;;;;14.25;60.18;99801.00;6709606;29;20206;-82
2024/01/26 02:07:11;;;;;;;3.60;2.93;;;;;;;14.28;60.34;99809.56;6709833;29;20271;-83
2024/01/26 02:10:33;;;;;;;4.17;3.10;;;;;;;14.59;59.38;99800.88;6709863;29;20253;-82
2024/01/26 02:13:56;;;;;;;2.87;2.50;;;;;;;14.62;59.32;99792.34;6710158;29;20365;-83
2024/01/26 02:17:17;;;;;;;2.50;2.30;;;;;;;14.61;59.00;99807.78;6709380;29;20869;-82
2024/01/26 02:20:38;;;;;;;2.20;2.10;;;;;;;14.53;59.53;99812.56;6709556;29;20254;-82
2024/01/26 02:24:01;;;;;;;2.33;2.00;;;;;;;14.65;58.85;99817.19;6709733;29;20756;-82
2024/01/26 02:27:23;;;;;;;3.83;2.10;;;;;;;14.69;58.93;99813.00;6709133;29;20383;-82
2024/01/26 02:30:45;;;;;;;2.23;2.07;;;;;;;14.37;59.45;99807.50;6709761;29;20276;-83
2024/01/26 02:34:07;;;;;;;2.20;2.10;;;;;;;14.62;59.02;99817.59;6709988;29;20247;-82
2024/01/26 02:37:29;;;;;;;2.00;1.90;;;;;;;14.86;57.86;99808.03;6709623;29;20236;-82
2024/01/26 02:40:52;;;;;;;2.33;2.20;;;;;;;14.79;57.82;99801.72;6709589;29;20328;-82
2024/01/26 02:44:13;;;;;;;2.10;2.00;;;;;;;14.66;58.07;99796.28;6712184;29;20303;-83
2024/01/26 02:47:35;;;;;;;1.97;1.87;;;;;;;14.60;58.16;99814.25;6714323;29;20410;-82
2024/01/26 02:50:56;;;;;;;1.60;1.50;;;;;;;14.30;58.79;99785.81;6714536;29;20297;-82
2024/01/26 02:54:18;;;;;;;1.83;1.60;;;;;;;14.35;58.46;99804.16;6714356;29;20218;-82
2024/01/26 02:57:40;;;;;;;1.50;1.50;;;;;;;14.26;58.66;99797.25;6714263;29;20256;-82
2024/01/26 03:01:02;;;;;;;1.77;1.70;;;;;;;14.32;58.54;99799.13;6714584;29;20307;-82
2024/01/26 03:04:24;;;;;;;1.60;1.50;;;;;;;14.30;58.47;99801.22;6714018;29;20215;-82
2024/01/26 03:07:45;;;;;;;2.03;1.70;;;;;;;14.34;58.38;99811.47;6713326;29;20238;-82
2024/01/26 03:11:07;;;;;;;1.70;1.60;;;;;;;14.29;58.18;99810.41;6714192;29;20214;-82
2024/01/26 03:14:30;;;;;;;2.63;1.77;;;;;;;14.02;58.87;99816.75;6713705;29;20593;-82
2024/01/26 03:17:51;;;;;;;2.00;1.90;;;;;;;14.25;58.38;99814.56;6713798;29;20207;-82
2024/01/26 03:21:13;;;;;;;2.10;2.00;;;;;;;14.34;57.79;99813.34;6713433;29;20232;-82
2024/01/26 03:24:34;;;;;;;1.60;1.50;;;;;;;14.50;57.58;99802.09;6713261;29;20232;-82
2024/01/26 03:27:56;;;;;;;1.83;1.73;;;;;;;14.56;57.29;99787.69;6713049;29;20582;-83
2024/01/26 03:31:19;;;;;;;1.80;1.70;;;;;;;14.47;57.56;99773.53;6713729;29;20213;-82
2024/01/26 03:34:40;;;;;;;2.00;1.90;;;;;;;14.71;56.96;99796.50;6713287;29;20301;-82
2024/01/26 03:38:02;;;;;;;3.23;2.00;;;;;;;14.55;57.07;99777.91;6713197;29;20286;-82
2024/01/26 03:41:24;;;;;;;2.20;2.00;;;;;;;14.45;57.13;99786.44;6704367;29;20220;-81
2024/01/26 03:44:45;;;;;;;2.00;1.90;;;;;;;14.20;58.07;99788.06;6711389;29;20214;-82
2024/01/26 03:48:08;;;;;;;2.70;2.07;;;;;;;14.22;58.46;99798.72;6697393;29;20253;-82
2024/01/26 03:51:30;;;;;;;1.90;1.80;;;;;;;14.35;57.70;99798.75;6687882;29;20626;-82
2024/01/26 03:54:52;;;;;;;1.90;1.80;;;;;;;14.06;58.78;99812.59;6686693;29;20305;-83
2024/01/26 03:58:14;;;;;;;2.17;2.07;;;;;;;13.73;59.87;99808.88;6687622;29;20242;-83
2024/01/26 04:01:35;;;;;;;1.97;1.87;;;;;;;13.51;61.01;99804.63;6713577;29;20265;-82
2024/01/26 04:04:58;;;;;;;1.90;1.80;;;;;;;13.57;61.19;99807.34;6712623;29;20358;-84
2024/01/26 04:08:20;;;;;;;2.07;1.97;;;;;;;13.69;59.88;99789.47;6712394;29;20255;-82
2024/01/26 04:11:41;;;;;;;2.60;2.40;;;;;;;13.83;59.95;99823.75;6714058;29;20306;-82
2024/01/26 04:15:03;;;;;;;2.30;2.10;;;;;;;14.16;58.76;99823.91;6714213;29;20247;-82
2024/01/26 04:18:24;;;;;;;1.80;1.70;;;;;;;13.98;59.33;99827.16;6713200;29;20264;-82
2024/01/26 04:21:49;;;;;;;2.57;2.37;;;;;;;14.39;58.81;99821.72;6713024;29;20229;-82
2024/01/26 04:25:11;;;;;;;2.40;2.20;;;;;;;14.43;58.26;99815.66;6712195;29;20310;-82
2024/01/26 04:28:32;;;;;;;2.93;2.13;;;;;;;14.18;58.83;99816.41;6712076;29;20235;-82
2024/01/26 04:31:54;;;;;;;2.13;2.00;;;;;;;14.06;59.25;99820.72;6712744;29;20350;-83
2024/01/26 04:35:16;;;;;;;2.30;2.20;;;;;;;14.09;59.13;99807.59;6707497;29;20208;-82
2024/01/26 04:38:38;;;;;;;1.97;1.87;;;;;;;14.09;58.99;99814.91;6686921;29;20258;-82
2024/01/26 04:42:01;;;;;;;3.83;1.80;;;;;;;14.10;59.03;99800.31;6686487;29;20211;-82
2024/01/26 04:45:22;;;;;;;2.40;2.17;;;;;;;14.48;57.66;99806.91;6687001;29;20300;-82
2024/01/26 04:48:44;;;;;;;2.23;1.90;;;;;;;14.35;57.64;99802.31;6685953;29;20387;-82
2024/01/26 04:52:06;;;;;;;1.93;1.83;;;;;;;14.57;57.02;99792.94;6687492;29;20295;-82
2024/01/26 04:55:29;;;;;;;1.80;1.70;;;;;;;14.55;57.03;99777.91;6687666;29;20258;-82
2024/01/26 04:58:50;;;;;;;2.53;2.27;;;;;;;14.67;56.56;99784.38;6686692;29;20289;-82
2024/01/26 05:02:12;;;;;;;2.20;1.93;;;;;;;14.54;56.68;99784.38;6686193;29;20247;-82
2024/01/26 05:05:33;;;;;;;1.80;1.70;;;;;;;14.66;56.18;99788.16;6685252;29;20364;-82
2024/01/26 05:08:55;;;;;;;1.80;1.70;;;;;;;14.80;55.12;99789.84;6685441;29;20254;-82
2024/01/26 05:12:17;;;;;;;1.80;1.70;;;;;;;14.96;55.03;99811.13;6686672;29;20254;-81
2024/01/26 05:15:39;;;;;;;2.00;1.80;;;;;;;14.76;55.21;99786.69;6685994;29;20301;-83
2024/01/26 05:19:00;;;;;;;1.90;1.80;;;;;;;14.35;56.30;99780.59;6683852;29;20733;-83
2024/01/26 05:22:22;;;;;;;2.00;1.70;;;;;;;14.32;56.19;99781.00;6688628;29;20354;-81
2024/01/26 05:25:45;;;;;;;1.80;1.70;;;;;;;13.73;57.66;99776.34;6710823;29;20330;-82
2024/01/26 05:29:07;;;;;;;1.70;1.60;;;;;;;13.68;58.18;99776.16;6710342;29;20226;-81
2024/01/26 05:32:29;;;;;;;1.63;1.53;;;;;;;13.99;57.89;99796.28;6710871;29;20761;-83
2024/01/26 05:35:50;;;;;;;1.50;1.50;;;;;;;14.62;55.72;99784.19;6710699;29;20209;-81
2024/01/26 05:39:12;;;;;;;2.03;1.80;;;;;;;13.76;57.65;99790.34;6709178;29;20325;-81
2024/01/26 05:42:34;;;;;;;1.50;1.50;;;;;;;14.23;57.37;99773.25;6711120;29;20209;-81
2024/01/26 05:45:57;;;;;;;3.30;1.87;;;;;;;14.47;56.85;99778.09;6710866;29;20327;-83
2024/01/26 05:49:18;;;;;;;1.80;1.70;;;;;;;13.71;58.57;99746.78;6709651;29;20302;-85
2024/01/26 05:52:40;;;;;;;2.23;1.67;;;;;;;13.50;59.13;99767.69;6710315;29;20357;-82
2024/01/26 05:56:02;;;;;;;2.07;1.90;;;;;;;14.12;57.92;99771.94;6710204;29;20232;-82
2024/01/26 05:59:23;;;;;;;2.70;1.77;;;;;;;14.31;57.24;99781.19;6709181;29;20267;-81
2024/01/26 06:02:46;;;;;;;1.53;1.50;;;;;;;14.15;57.74;99781.56;6709995;29;20280;-81
2024/01/26 06:06:08;;;;;;;3.03;1.60;;;;;;;14.09;57.42;99776.94;6709647;29;20271;-83
2024/01/26 06:09:30;;;;;;;1.80;1.70;;;;;;;14.29;57.04;99767.81;6709766;29;20233;-83
2024/01/26 06:12:51;;;;;;;1.80;1.70;;;;;;;13.75;58.41;99777.03;6709362;29;20243;-81
2024/01/26 06:16:13;;;;;;;2.37;1.60;;;;;;;13.76;58.74;99771.38;6709906;29;20270;-82
2024/01/26 06:19:37;;;;;;;1.60;1.50;;;;;;;14.34;56.82;99778.91;6712398;29;20707;-82
2024/01/26 06:22:59;;;;;;;1.93;1.83;;;;;;;13.43;59.67;99766.84;6715211;29;20221;-81
2024/01/26 06:26:20;;;;;;;3.13;1.80;;;;;;;13.90;59.04;99789.38;6714051;29;20236;-82
2024/01/26 06:29:42;;;;;;;2.07;1.80;;;;;;;14.14;57.94;99791.56;6715052;29;20240;-82
2024/01/26 06:33:04;;;;;;;1.97;1.87;;;;;;;14.22;57.40;99775.13;6715325;29;20206;-82
2024/01/26 06:36:27;;;;;;;1.80;1.63;;;;;;;14.29;57.91;99775.16;6714260;29;20245;-82
2024/01/26 06:39:48;;;;;;;2.00;1.90;;;;;;;13.77;58.54;99755.97;6714186;29;20242;-81
2024/01/26 06:43:10;;;;;;;1.70;1.60;;;;;;;14.24;57.62;99774.91;6715351;29;20221;-82
2024/01/26 06:46:31;;;;;;;1.70;1.60;;;;;;;14.24;56.71;99789.34;6714019;29;20233;-82
2024/01/26 06:49:53;;;;;;;2.20;2.00;;;;;;;14.53;56.14;99788.97;6715396;29;20717;-81
2024/01/26 06:53:16;;;;;;;2.60;1.47;;;;;;;14.09;56.70;99753.34;6715234;29;20309;-81
2024/01/26 06:56:37;;;;;;;2.10;1.67;;;;;;;14.72;55.15;99776.44;6715090;29;20304;-82
2024/01/26 06:59:59;;;;;;;2.00;1.70;;;;;;;14.69;55.29;99772.28;6715912;29;20295;-82
2024/01/26 07:03:20;;;;;;;1.70;1.60;;;;;;;14.82;54.22;99776.88;6716437;29;20788;-82
2024/01/26 07:06:42;;;;;;;1.53;1.50;;;;;;;14.38;55.49;99785.59;6713693;29;20461;-82
2024/01/26 07:10:06;;;;;;;1.70;1.60;;;;;;;14.46;55.56;99781.88;6713534;29;20255;-82
2024/01/26 07:13:28;;;;;;;1.97;1.87;;;;;;;14.61;55.50;99777.06;6710961;29;20205;-80
2024/01/26 07:16:49;;;;;;;1.90;1.63;;;;;;;14.64;55.02;99757.66;6710829;29;20297;-80
2024/01/26 07:20:11;;;;;;;2.17;1.67;;;;;;;14.86;54.52;99754.53;6710480;29;20386;-85
2024/01/26 07:23:32;;;;;;;2.00;1.80;;;;;;;14.79;54.30;99764.56;6699525;29;20630;-80
2024/01/26 07:26:55;;;;;;;1.67;1.57;;;;;;;15.04;53.89;99754.72;6709163;29;20260;-83
2024/01/26 07:30:18;;;;;;;1.77;1.67;;;;;;;14.93;54.20;99770.84;6709496;29;20280;-80
2024/01/26 07:33:40;;;;;;;1.93;1.70;;;;;;;14.52;55.13;99764.75;6696855;29;20215;-80
2024/01/26 07:37:01;;;;;;;1.87;1.77;;;;;;;14.19;56.15;99766.56;6682451;29;20271;-79
2024/01/26 07:40:23;;;;;;;1.90;1.80;;;;;;;14.39;55.77;99749.28;6699953;29;20731;-79
2024/01/26 07:43:46;;;;;;;2.47;2.03;;;;;;;14.38;55.81;99760.34;6709641;29;20300;-79
2024/01/26 07:47:07;;;;;;;3.33;2.30;;;;;;;14.65;55.60;99740.34;6708106;29;20327;-79
2024/01/26 07:50:29;;;;;;;1.73;1.63;;;;;;;14.72;55.14;99765.59;6709564;29;20330;-80
2024/01/26 07:53:50;;;;;;;1.70;1.47;;;;;;;14.45;56.02;99759.31;6709673;29;20219;-80
2024/01/26 07:57:12;;;;;;;1.83;1.63;;;;;;;14.49;55.78;99762.44;6708242;29;20775;-79
2024/01/26 08:00:35;;;;;;;1.77;1.40;;;;;;;14.60;55.32;99749.09;6708871;29;20264;-81
2024/01/26 08:03:56;;;;;;;1.90;1.70;;;;;;;14.38;55.96;99754.91;6716170;29;20280;-79
2024/01/26 08:07:18;;;;;;;1.70;1.60;;;;;;;14.52;55.54;99733.00;6704273;29;20658;-79
2024/01/26 08:10:39;;;;;;;2.43;1.90;;;;;;;14.49;55.47;99741.56;6707339;29;20608;-79
2024/01/26 08:14:02;;;;;;;1.70;1.60;;;;;;;14.78;54.79;99732.19;6706965;29;20213;-80
2024/01/26 08:17:25;;;;;;;1.53;1.53;;;;;;;14.33;55.80;99747.38;6706035;29;20223;-79
2024/01/26 08:20:46;;;;;;;1.53;1.43;;;;;;;14.17;56.68;99745.03;6727977;29;20315;-79
2024/01/26 08:24:08;;;;;;;1.70;1.50;;;;;;;14.00;57.18;99748.31;6715484;29;20324;-79
2024/01/26 08:27:30;;;;;;;2.87;1.70;;;;;;;15.02;54.61;99734.25;6706125;29;20235;-79
2024/01/26 08:30:53;;;;;;;1.87;1.77;;;;;;;15.08;54.40;99742.41;6706312;29;20239;-79
2024/01/26 08:34:16;;;;;;;1.83;1.73;;;;;;;15.58;52.95;99754.44;6707298;29;20212;-80
2024/01/26 08:37:38;;;;;;;1.63;1.53;;;;;;;15.66;52.17;99737.88;6706835;29;20226;-79
2024/01/26 08:40:59;;;;;;;1.77;1.67;;;;;;;14.80;54.87;99736.34;6706430;29;20313;-78
2024/01/26 08:44:21;;;;;;;1.90;1.80;;;;;;;15.46;52.89;99729.78;6707899;29;20215;-79
2024/01/26 08:47:42;;;;;;;1.53;1.50;;;;;;;15.48;52.51;99711.41;6707490;29;20274;-80
2024/01/26 08:51:05;;;;;;;1.27;1.27;;;;;;;15.05;54.05;99714.84;6706050;29;20246;-80
2024/01/26 08:54:27;;;;;;;1.67;1.57;;;;;;;15.13;53.68;99691.00;6710256;29;20214;-80
2024/01/26 08:57:48;;;;;;;2.40;1.70;;;;;;;15.20;54.25;99693.69;6707302;29;20301;-80
2024/01/26 09:01:10;;;;;;;1.73;1.63;;;;;;;15.53;53.31;99679.00;6707452;29;20307;-81
2024/01/26 09:04:31;;;;;;;2.77;2.13;;;;;;;16.12;51.52;99667.78;6706746;29;20270;-80
2024/01/26 09:07:54;;;;;;;3.60;2.20;;;;;;;16.25;51.04;99660.34;6707476;29;20838;-85
2024/01/26 09:11:16;;;;;;;2.50;1.90;;;;;;;16.39;49.63;99615.66;6709996;29;20251;-83
2024/01/26 09:14:37;;;;;;;1.87;1.77;;;;;;;16.02;51.47;99662.81;6707882;29;20211;-85
2024/01/26 09:18:00;;;;;;;1.63;1.53;;;;;;;15.81;51.93;99648.72;6702831;29;20660;-84
2024/01/26 09:21:22;;;;;;;2.00;1.90;;;;;;;16.39;50.82;99644.78;6687511;29;20219;-85
2024/01/26 09:24:45;;;;;;;2.27;1.90;;;;;;;16.01;51.19;99625.78;6695301;29;20326;-85
2024/01/26 09:28:06;;;;;;;1.70;1.60;;;;;;;15.13;52.77;99614.94;6706200;29;20748;-83
2024/01/26 09:31:28;;;;;;;3.13;1.70;;;;;;;15.73;52.95;99649.81;6707004;29;20210;-86
2024/01/26 09:34:49;;;;;;;2.37;1.37;;;;;;;15.37;53.81;99660.44;6720168;29;20201;-85
2024/01/26 09:38:11;;;;;;;1.93;1.83;;;;;;;15.90;52.60;99661.84;6706130;29;20614;-85
2024/01/26 09:41:34;;;;;;;1.77;1.67;;;;;;;15.81;52.07;99654.97;6707839;29;20239;-85
2024/01/26 09:44:56;;;;;;;1.60;1.50;;;;;;;15.79;52.49;99669.84;6706763;29;20219;-85
2024/01/26 09:48:19;;;;;;;2.83;1.70;;;;;;;15.99;52.61;99659.69;6706145;29;20273;-84
2024/01/26 09:51:41;;;;;;;5.40;2.60;;;;;;;15.81;53.13;99665.84;6706661;29;20226;-84
2024/01/26 09:55:03;;;;;;;1.90;1.80;;;;;;;16.02;52.59;99662.81;6706355;29;20352;-84
2024/01/26 09:58:26;;;;;;;2.67;2.07;;;;;;;15.94;52.33;99667.69;6706312;29;20235;-84
2024/01/26 10:01:49;;;;;;;1.90;1.80;;;;;;;16.16;52.76;99660.84;6706665;29;20223;-84
2024/01/26 10:05:11;;;;;;;3.00;1.83;;;;;;;16.40;52.48;99652.72;6707652;29;20310;-85
2024/01/26 10:08:38;;;;;;;2.70;1.90;;;;;;;16.63;50.69;99649.41;6718855;29;20295;-84
2024/01/26 10:11:59;;;;;;;2.37;1.93;;;;;;;16.80;50.66;99670.38;6736644;29;20206;-83
2024/01/26 10:15:22;;;;;;;2.50;2.10;;;;;;;16.81;51.68;99671.22;6736699;29;20654;-83
2024/01/26 10:18:45;;;;;;;1.97;1.87;;;;;;;16.48;51.80;99670.66;6736608;29;20219;-81
2024/01/26 10:22:08;;;;;;;2.30;1.93;;;;;;;16.35;52.36;99668.84;6736258;29;20215;-83
2024/01/26 10:25:30;;;;;;;2.20;1.97;;;;;;;16.58;52.20;99669.09;6737759;29;20252;-81
2024/01/26 10:28:53;;;;;;;2.70;2.37;;;;;;;16.80;50.86;99656.75;6727642;29;20279;-82
2024/01/26 10:32:16;;;;;;;164.83;70.43;;;;;;;16.51;51.68;99654.72;6718447;29;20208;-83
2024/01/26 10:35:38;;;;;;;6.07;3.63;;;;;;;16.78;51.34;99634.38;6722176;29;20239;-84
2024/01/26 10:39:00;;;;;;;97.50;43.07;;;;;;;16.92;51.66;99644.06;6709467;29;20233;-83
2024/01/26 10:42:22;;;;;;;101.60;47.37;;;;;;;16.65;52.64;99644.56;6708065;29;20224;-83
2024/01/26 10:45:44;;;;;;;11.53;6.47;;;;;;;16.09;52.66;99644.56;6706610;29;20580;-87
2024/01/26 10:49:07;;;;;;;191.27;103.53;;;;;;;16.41;53.19;99645.41;6706321;29;20366;-83
2024/01/26 10:52:30;;;;;;;2.70;2.40;;;;;;;16.60;52.82;99633.50;6709007;29;20311;-84
2024/01/26 10:55:52;;;;;;;1.97;1.83;;;;;;;16.73;51.07;99617.03;6703594;29;20225;-82
2024/01/26 10:59:16;;;;;;;3.00;2.40;;;;;;;16.56;50.66;99619.50;6691666;29;20647;-83
2024/01/26 11:02:37;;;;;;;53.53;33.27;;;;;;;16.63;51.84;99623.00;6710052;29;20214;-84
2024/01/26 11:06:00;;;;;;;9.13;5.40;;;;;;;16.77;51.44;99610.09;6726920;29;20208;-84
2024/01/26 11:09:22;;;;;;;8.73;6.87;;;;;;;16.65;51.76;99592.81;6709734;29;20278;-85
2024/01/26 11:12:44;;;;;;;3.07;2.60;;;;;;;16.42;51.43;99592.63;6710573;29;20228;-86
2024/01/26 11:16:06;;;;;;;22.10;13.13;;;;;;;16.53;51.84;99589.16;6711759;29;20223;-84
2024/01/26 11:19:31;;;;;;;6.10;3.43;;;;;;;16.68;50.63;99581.50;6709452;29;20229;-84
2024/01/26 11:23:02;;;;;;;2.40;2.20;;;;;;;16.22;52.18;99578.34;6712463;29;20283;-84
2024/01/26 11:26:25;;;;;;;2.10;1.90;;;;;;;16.47;52.00;99590.06;6715614;29;20211;-85
2024/01/26 11:29:47;;;;;;;5.97;2.80;;;;;;;16.68;51.82;99582.31;6716763;29;20243;-83
2024/01/26 11:33:16;;;;;;;2.57;1.80;;;;;;;16.36;51.78;99579.88;6718422;29;20213;-82
2024/01/26 11:36:37;;;;;;;2.00;1.90;;;;;;;16.39;52.19;99580.28;6709105;29;20214;-81
2024/01/26 11:40:01;;;;;;;2.77;1.70;;;;;;;15.89;53.27;99575.03;6710117;29;20745;-82
2024/01/26 11:43:25;;;;;;;1.63;1.53;;;;;;;15.97;53.79;99577.47;6717253;29;20224;-81
2024/01/26 11:46:47;;;;;;;2.57;2.37;;;;;;;16.53;52.24;99573.69;6713859;29;20215;-81
2024/01/26 11:50:09;;;;;;;2.00;1.80;;;;;;;16.12;52.66;99561.66;6713617;29;20258;-81
2024/01/26 11:53:31;;;;;;;2.97;1.60;;;;;;;16.62;51.85;99566.03;6718864;29;20214;-83
2024/01/26 11:56:54;;;;;;;2.00;1.70;;;;;;;16.26;52.71;99558.59;6710772;29;20365;-82
2024/01/26 12:00:17;;;;;;;1.80;1.70;;;;;;;15.86;53.67;99579.00;6723924;29;20233;-83
2024/01/26 12:03:40;;;;;;;2.37;1.97;;;;;;;15.87;53.87;99564.38;6729306;29;20652;-79
2024/01/26 12:07:02;;;;;;;1.93;1.83;;;;;;;15.71;54.81;99578.50;6706224;29;20861;-81
2024/01/26 12:10:24;;;;;;;1.97;1.87;;;;;;;15.98;55.00;99581.88;6709559;29;20266;-82
2024/01/26 12:13:48;;;;;;;1.53;1.43;;;;;;;15.94;55.17;99577.94;6709015;29;20215;-80
2024/01/26 12:17:10;;;;;;;2.03;1.83;;;;;;;15.72;55.59;99576.59;6706941;29;20226;-83
2024/01/26 12:20:31;;;;;;;3.20;2.00;;;;;;;15.92;55.50;99561.81;6709648;29;20779;-82
2024/01/26 12:23:53;;;;;;;2.20;2.10;;;;;;;16.05;54.59;99558.16;6707208;29;20271;-86
2024/01/26 12:27:14;;;;;;;1.80;1.70;;;;;;;16.09;54.39;99562.09;6704884;29;20254;-82
2024/01/26 12:30:37;;;;;;;2.60;2.40;;;;;;;16.48;53.54;99551.75;6706818;29;20331;-84
2024/01/26 12:34:01;;;;;;;2.30;1.90;;;;;;;16.31;53.67;99563.38;6710925;29;20307;-83
2024/01/26 12:37:22;;;;;;;4.53;2.70;;;;;;;16.12;53.94;99538.03;6706291;29;20222;-84
2024/01/26 12:40:44;;;;;;;3.73;2.60;;;;;;;16.54;53.09;99547.28;6707094;29;20777;-84
2024/01/26 12:44:05;;;;;;;2.17;1.97;;;;;;;16.64;53.18;99547.59;6707389;29;20223;-84
2024/01/26 12:47:28;;;;;;;2.60;2.20;;;;;;;16.55;53.02;99549.78;6705574;29;20235;-84
2024/01/26 12:50:50;;;;;;;1.77;1.67;;;;;;;16.25;53.92;99561.53;6706877;29;20298;-82
2024/01/26 12:54:11;;;;;;;2.90;1.90;;;;;;;16.33;54.43;99555.84;6712544;29;20213;-79
2024/01/26 12:57:33;;;;;;;1.70;1.60;;;;;;;16.16;55.20;99541.94;6711644;29;20279;-81
2024/01/26 13:00:55;;;;;;;2.20;2.00;;;;;;;15.91;56.08;99543.00;6707254;29;20233;-79
2024/01/26 13:04:18;;;;;;;2.30;1.90;;;;;;;16.09;56.29;99540.34;6706455;29;20311;-79
2024/01/26 13:07:39;;;;;;;1.93;1.80;;;;;;;15.79;57.31;99532.00;6722140;29;20263;-79
2024/01/26 13:11:01;;;;;;;1.87;1.77;;;;;;;15.83;56.84;99535.13;6706613;29;20315;-77
2024/01/26 13:14:22;;;;;;;1.97;1.80;;;;;;;15.98;56.58;99541.91;6705561;29;20215;-79
2024/01/26 13:17:44;;;;;;;3.40;1.83;;;;;;;15.88;57.11;99527.13;6705906;29;20206;-82
2024/01/26 13:21:07;;;;;;;3.93;2.40;;;;;;;15.98;57.32;99522.84;6706252;29;20286;-82
2024/01/26 13:24:30;;;;;;;3.03;2.30;;;;;;;16.09;57.79;99540.34;6707517;29;20212;-83
2024/01/26 13:27:51;;;;;;;2.67;2.43;;;;;;;16.12;57.54;99535.31;6710149;29;20222;-79
2024/01/26 13:31:13;;;;;;;3.13;1.90;;;;;;;15.52;59.08;99521.53;6708674;29;20209;-80
2024/01/26 13:34:36;;;;;;;1.90;1.80;;;;;;;15.78;58.92;99535.78;6708394;29;20297;-80
2024/01/26 13:37:59;;;;;;;2.20;1.97;;;;;;;15.99;58.46;99540.84;6710242;29;20233;-81
2024/01/26 13:41:20;;;;;;;3.17;2.03;;;;;;;15.84;58.69;99529.47;6719789;29;20211;-81
2024/01/26 13:44:43;;;;;;;2.77;1.90;;;;;;;16.00;58.36;99541.69;6717866;29;20230;-81
2024/01/26 13:48:05;;;;;;;2.20;2.03;;;;;;;15.99;59.15;99545.47;6723958;29;20405;-82
2024/01/26 13:51:27;;;;;;;2.50;2.20;;;;;;;15.78;60.16;99546.66;6706344;29;20217;-80
2024/01/26 13:54:49;;;;;;;2.47;2.27;;;;;;;15.92;60.42;99541.97;6694918;29;20235;-80
2024/01/26 13:58:11;;;;;;;2.57;1.90;;;;;;;16.12;59.63;99545.34;6722866;29;20315;-83
2024/01/26 14:01:34;;;;;;;1.73;1.63;;;;;;;15.98;60.09;99549.25;6707449;29;20392;-82
2024/01/26 14:04:55;;;;;;;2.90;1.70;;;;;;;15.84;60.61;99551.22;6707551;29;20672;-81
2024/01/26 14:08:17;;;;;;;2.00;1.90;;;;;;;16.08;59.94;99547.69;6706175;29;20238;-80
2024/01/26 14:11:40;;;;;;;2.73;2.00;;;;;;;15.95;60.23;99547.78;6709271;29;20293;-80
2024/01/26 14:15:01;;;;;;;2.70;1.60;;;;;;;16.24;59.48;99568.03;6733762;29;20631;-81
2024/01/26 14:18:23;;;;;;;2.10;1.93;;;;;;;16.19;59.04;99557.84;6732707;29;20242;-81
2024/01/26 14:21:44;;;;;;;1.80;1.70;;;;;;;16.04;60.15;99573.66;6725679;29;20301;-81
2024/01/26 14:25:07;;;;;;;1.70;1.60;;;;;;;15.59;61.50;99563.09;6710790;29;20215;-81
2024/01/26 14:28:30;;;;;;;1.77;1.60;;;;;;;15.39;61.52;99576.00;6714055;29;20247;-82
2024/01/26 14:31:53;;;;;;;2.07;1.90;;;;;;;15.56;62.14;99577.13;6709347;29;20241;-82
2024/01/26 14:35:15;;;;;;;1.90;1.70;;;;;;;15.80;60.97;99585.34;6711362;29;20215;-80
2024/01/26 14:38:37;;;;;;;1.63;1.53;;;;;;;15.91;60.73;99581.06;6713057;29;20229;-80
2024/01/26 14:41:58;;;;;;;4.33;1.70;;;;;;;15.33;62.32;99585.00;6718887;29;20276;-81
2024/01/26 14:45:21;;;;;;;2.20;1.50;;;;;;;15.47;61.85;99586.59;6741566;29;20760;-81
2024/01/26 14:48:43;;;;;;;1.70;1.60;;;;;;;15.15;63.66;99576.69;6721493;29;20250;-79
2024/01/26 14:52:05;;;;;;;1.80;1.70;;;;;;;15.29;63.04;99594.59;6710709;29;20359;-80
2024/01/26 14:55:27;;;;;;;1.90;1.70;;;;;;;15.45;62.01;99607.72;6709504;29;20294;-79
2024/01/26 14:58:49;;;;;;;2.03;1.70;;;;;;;15.56;62.26;99607.00;6709553;29;20225;-80
2024/01/26 15:02:13;;;;;;;1.67;1.60;;;;;;;15.26;62.66;99622.19;6713143;29;20356;-80
2024/01/26 15:05:34;;;;;;;2.00;1.90;;;;;;;15.41;62.73;99617.34;6709896;29;20215;-80
2024/01/26 15:08:56;;;;;;;1.70;1.60;;;;;;;15.24;62.87;99608.84;6708547;29;20331;-80
2024/01/26 15:12:17;;;;;;;1.70;1.70;;;;;;;15.31;62.85;99625.94;6709395;29;20281;-81
2024/01/26 15:15:40;;;;;;;1.40;1.30;;;;;;;15.78;60.86;99630.97;6712659;29;20219;-81
2024/01/26 15:19:03;;;;;;;2.30;1.80;;;;;;;15.54;61.66;99633.59;6708083;29;20233;-82
2024/01/26 15:22:25;;;;;;;1.80;1.70;;;;;;;15.67;61.48;99628.06;6713391;29;20279;-82
2024/01/26 15:25:47;;;;;;;2.17;1.47;;;;;;;15.71;61.35;99634.75;6713698;29;20241;-83
2024/01/26 15:29:09;;;;;;;1.40;1.40;;;;;;;15.65;61.19;99636.47;6718879;29;20252;-83
2024/01/26 15:32:31;;;;;;;1.70;1.50;;;;;;;15.76;60.79;99638.47;6724425;29;20367;-82
2024/01/26 15:35:55;;;;;;;2.00;1.60;;;;;;;15.35;62.03;99651.69;6714928;29;20302;-82
2024/01/26 15:39:16;;;;;;;1.70;1.60;;;;;;;15.60;61.62;99662.63;6720681;29;20240;-82
2024/01/26 15:42:38;;;;;;;2.03;1.93;;;;;;;15.58;61.53;99653.88;6708503;29;20223;-82
2024/01/26 15:45:59;;;;;;;1.80;1.70;;;;;;;15.63;61.38;99673.09;6712578;29;20228;-84
2024/01/26 15:49:21;;;;;;;1.67;1.57;;;;;;;15.76;61.22;99679.25;6717138;29;20276;-85